createdAt,value
2023-03-28T00:04:17.381Z,2.90
2023-03-28T00:09:20.715Z,2.78
2023-03-28T00:14:24.879Z,2.92
2023-03-28T00:19:27.586Z,3.10
2023-03-28T00:24:30.278Z,3.87
2023-03-28T00:29:35.338Z,2.90
2023-03-28T00:34:38.007Z,3.17
2023-03-28T00:39:43.458Z,3.25
2023-03-28T00:44:50.048Z,3.55
2023-03-28T00:49:55.320Z,3.33
2023-03-28T00:54:59.429Z,3.97
2023-03-28T01:00:06.850Z,4.10
2023-03-28T01:05:10.890Z,3.40
2023-03-28T01:10:14.248Z,3.47
2023-03-28T01:15:18.321Z,3.17
2023-03-28T01:20:49.282Z,4.35
2023-03-28T01:26:27.017Z,2.95
2023-03-28T01:31:48.650Z,4.68
2023-03-28T01:37:05.748Z,4.25
2023-03-28T01:42:15.971Z,3.88
2023-03-28T01:47:27.687Z,3.92
2023-03-28T01:52:37.744Z,3.67
2023-03-28T01:57:50.311Z,3.28
2023-03-28T02:02:57.982Z,3.60
2023-03-28T02:08:04.822Z,3.60
2023-03-28T02:13:15.443Z,4.03
2023-03-28T02:18:23.685Z,3.78
2023-03-28T02:23:33.166Z,3.35
2023-03-28T02:28:38.514Z,3.15
2023-03-28T02:33:42.912Z,3.50
2023-03-28T02:38:56.392Z,3.80
2023-03-28T02:44:27.176Z,4.37
2023-03-28T02:49:50.063Z,3.78
2023-03-28T02:55:03.231Z,4.10
2023-03-28T03:00:11.509Z,3.47
2023-03-28T03:05:14.389Z,5.60
2023-03-28T03:10:19.120Z,4.03
2023-03-28T03:15:21.792Z,4.55
2023-03-28T03:20:26.048Z,4.70
2023-03-28T03:25:31.265Z,4.25
2023-03-28T03:30:33.895Z,4.40
2023-03-28T03:35:36.724Z,4.78
2023-03-28T03:40:40.995Z,4.60
2023-03-28T03:45:45.922Z,4.82
2023-03-28T03:50:48.682Z,7.20
2023-03-28T03:55:52.586Z,5.00
2023-03-28T04:00:55.755Z,6.40
2023-03-28T04:05:58.687Z,6.38
2023-03-28T04:11:03.256Z,6.72
2023-03-28T04:16:06.682Z,7.50
2023-03-28T04:21:10.358Z,6.57
2023-03-28T04:31:18.020Z,6.40
2023-03-28T04:36:22.609Z,6.28
2023-03-28T04:41:26.731Z,7.00
2023-03-28T04:46:29.658Z,6.20
2023-03-28T04:51:33.244Z,6.97
2023-03-28T05:01:42.011Z,7.17
2023-03-28T05:06:45.218Z,7.65
2023-03-28T05:11:49.279Z,7.43
2023-03-28T05:16:52.189Z,7.28
2023-03-28T05:21:54.771Z,6.93
2023-03-28T05:26:58.732Z,6.13
2023-03-28T05:32:01.387Z,7.35
2023-03-28T05:37:04.246Z,7.07
2023-03-28T05:42:09.277Z,6.87
2023-03-28T05:47:11.911Z,8.43
2023-03-28T05:52:14.545Z,8.23
2023-03-28T05:57:18.733Z,7.03
2023-03-28T06:02:23.086Z,9.20
2023-03-28T06:07:39.204Z,9.70
2023-03-28T06:12:46.301Z,11.25
2023-03-28T06:17:49.040Z,8.90
2023-03-28T06:22:52.237Z,8.93
2023-03-28T06:27:56.838Z,7.88
2023-03-28T06:32:59.457Z,7.05
2023-03-28T06:38:02.223Z,6.97
2023-03-28T06:43:06.132Z,3.80
2023-03-28T06:48:08.876Z,3.95
2023-03-28T06:53:11.610Z,4.03
2023-03-28T06:58:15.489Z,3.40
2023-03-28T07:03:18.153Z,3.30
2023-03-28T07:08:21.462Z,3.28
2023-03-28T07:13:25.675Z,3.05
2023-03-28T07:18:28.286Z,4.10
2023-03-28T07:23:30.982Z,3.33
2023-03-28T07:28:35.524Z,2.87
2023-03-28T07:33:38.742Z,2.90
2023-03-28T07:38:41.972Z,2.90
2023-03-28T07:43:46.460Z,3.35
2023-03-28T07:48:49.042Z,3.00
2023-03-28T07:53:51.842Z,2.70
2023-03-28T07:58:56.025Z,3.95
2023-03-28T08:03:59.470Z,2.50
2023-03-28T08:09:02.285Z,2.72
2023-03-28T08:14:09.353Z,2.35
2023-03-28T08:19:12.356Z,2.10
2023-03-28T08:24:22.336Z,2.10
2023-03-28T08:29:33.310Z,1.88
2023-03-28T08:34:37.365Z,2.00
2023-03-28T08:39:42.443Z,2.30
2023-03-28T08:44:58.330Z,2.60
2023-03-28T08:50:09.737Z,2.60
2023-03-28T08:55:29.033Z,2.00
2023-03-28T09:00:36.995Z,1.75
2023-03-28T09:05:48.015Z,1.58
2023-03-28T09:10:57.019Z,1.95
2023-03-28T09:16:30.507Z,2.22
2023-03-28T09:21:43.906Z,1.10
2023-03-28T09:26:53.132Z,1.30
2023-03-28T09:32:01.040Z,2.00
2023-03-28T09:37:15.391Z,1.50
2023-03-28T09:42:28.377Z,1.52
2023-03-28T09:47:33.977Z,1.67
2023-03-28T09:52:36.676Z,1.70
2023-03-28T09:58:11.506Z,3.13
2023-03-28T10:03:23.350Z,1.63
2023-03-28T10:08:32.756Z,1.50
2023-03-28T10:13:40.706Z,1.55
2023-03-28T10:18:45.020Z,1.80
2023-03-28T10:23:55.134Z,1.88
2023-03-28T10:29:04.307Z,2.45
2023-03-28T10:34:26.207Z,2.00
2023-03-28T10:39:30.881Z,1.77
2023-03-28T10:44:36.561Z,2.10
2023-03-28T10:49:45.928Z,1.70
2023-03-28T10:55:01.562Z,1.67
2023-03-28T11:00:12.237Z,1.50
2023-03-28T11:05:29.029Z,1.40
2023-03-28T11:10:43.347Z,1.42
2023-03-28T11:15:56.934Z,1.50
2023-03-28T11:21:13.168Z,1.60
2023-03-28T11:26:18.932Z,1.58
2023-03-28T11:31:27.927Z,1.80
2023-03-28T11:36:37.214Z,2.20
2023-03-28T11:41:42.523Z,2.50
2023-03-28T11:46:51.588Z,2.38
2023-03-28T11:52:05.141Z,2.40
2023-03-28T11:57:16.792Z,2.35
2023-03-28T12:02:41.319Z,2.70
2023-03-28T12:07:52.260Z,2.20
2023-03-28T12:13:06.725Z,2.13
2023-03-28T12:18:16.043Z,2.30
2023-03-28T12:23:28.463Z,1.92
2023-03-28T12:28:38.937Z,1.80
2023-03-28T12:33:51.660Z,1.55
2023-03-28T12:38:59.609Z,1.33
2023-03-28T12:44:08.060Z,1.77
2023-03-28T12:49:17.737Z,1.50
2023-03-28T12:54:27.422Z,1.75
2023-03-28T12:59:48.492Z,1.95
2023-03-28T13:05:01.098Z,1.85
2023-03-28T13:10:15.745Z,2.03
2023-03-28T13:15:30.902Z,2.88
2023-03-28T13:20:33.573Z,2.22
2023-03-28T13:25:38.827Z,2.40
2023-03-28T13:30:45.605Z,2.25
2023-03-28T13:36:10.919Z,3.17
2023-03-28T13:41:35.645Z,2.33
2023-03-28T13:46:45.150Z,1.90
2023-03-28T13:51:53.132Z,1.95
2023-03-28T13:57:03.320Z,1.90
2023-03-28T14:02:18.609Z,2.00
2023-03-28T14:07:26.346Z,2.35
2023-03-28T14:12:31.609Z,2.10
2023-03-28T14:17:36.434Z,2.55
2023-03-28T14:22:49.388Z,2.42
2023-03-28T14:28:08.949Z,2.08
2023-03-28T14:33:22.044Z,1.70
2023-03-28T14:38:30.355Z,1.70
2023-03-28T14:43:34.651Z,2.30
2023-03-28T14:48:39.156Z,1.92
2023-03-28T14:53:43.139Z,1.75
2023-03-28T14:58:49.955Z,2.25
2023-03-28T15:03:57.715Z,3.45
2023-03-28T15:09:02.046Z,2.05
2023-03-28T15:14:12.745Z,2.10
2023-03-28T15:19:22.330Z,1.75
2023-03-28T15:24:27.708Z,2.33
2023-03-28T15:29:37.216Z,2.53
2023-03-28T15:40:29.374Z,2.00
2023-03-28T15:45:42.960Z,2.25
2023-03-28T15:50:50.390Z,2.40
2023-03-28T15:55:53.004Z,2.30
2023-03-28T16:00:56.998Z,3.50
2023-03-28T16:06:23.114Z,2.28
2023-03-28T16:11:34.267Z,2.72
2023-03-28T16:16:40.572Z,3.42
2023-03-28T16:21:43.259Z,3.30
2023-03-28T16:26:45.876Z,3.57
2023-03-28T16:31:49.866Z,3.17
2023-03-28T16:36:53.175Z,2.75
2023-03-28T16:41:55.918Z,2.80
2023-03-28T16:46:59.925Z,3.27
2023-03-28T16:52:02.534Z,2.58
2023-03-28T16:57:05.384Z,2.70
2023-03-28T17:02:11.586Z,2.73
2023-03-28T17:07:14.192Z,3.08
2023-03-28T17:12:16.947Z,2.95
2023-03-28T17:17:22.304Z,2.97
2023-03-28T17:22:25.611Z,3.53
2023-03-28T17:27:28.282Z,4.00
2023-03-28T17:32:32.270Z,3.40
2023-03-28T17:37:35.118Z,3.83
2023-03-28T17:42:37.897Z,2.97
2023-03-28T17:47:42.030Z,3.43
2023-03-28T17:52:44.714Z,3.67
2023-03-28T17:57:47.718Z,3.30
2023-03-28T18:02:52.738Z,3.15
2023-03-28T18:07:56.558Z,3.22
2023-03-28T18:12:59.175Z,3.15
2023-03-28T18:18:03.474Z,3.33
2023-03-28T18:23:09.374Z,3.03
2023-03-28T18:28:12.212Z,4.60
2023-03-28T18:33:17.420Z,3.37
2023-03-28T18:38:20.024Z,3.65
2023-03-28T18:43:22.963Z,4.13
2023-03-28T18:48:28.197Z,4.50
2023-03-28T18:53:30.881Z,5.90
2023-03-28T18:58:34.034Z,5.23
2023-03-28T19:03:40.591Z,8.98
2023-03-28T19:08:44.826Z,9.48
2023-03-28T19:13:48.092Z,6.15
2023-03-28T19:18:52.103Z,5.43
2023-03-28T19:23:55.268Z,5.15
2023-03-28T19:28:58.555Z,3.50
2023-03-28T19:34:02.999Z,4.82
2023-03-28T19:39:06.173Z,6.88
2023-03-28T19:44:08.875Z,4.70
2023-03-28T19:49:13.276Z,4.50
2023-03-28T19:54:16.495Z,3.50
2023-03-28T19:59:19.390Z,3.30
2023-03-28T20:04:23.352Z,3.10
2023-03-28T20:09:26.324Z,2.60
2023-03-28T20:14:29.077Z,2.75
2023-03-28T20:19:33.199Z,2.70
2023-03-28T20:24:35.804Z,3.17
2023-03-28T20:29:38.642Z,1.50
2023-03-28T20:34:42.533Z,1.50
2023-03-28T20:39:47.221Z,1.80
2023-03-28T20:44:49.911Z,1.80
2023-03-28T20:49:56.833Z,2.30
2023-03-28T20:54:59.556Z,1.83
2023-03-28T21:00:02.259Z,1.87
2023-03-28T21:05:07.840Z,2.47
2023-03-28T21:10:11.700Z,2.10
2023-03-28T21:15:15.363Z,2.33
2023-03-28T21:20:19.524Z,3.05
2023-03-28T21:25:22.513Z,2.40
2023-03-28T21:30:25.382Z,2.88
2023-03-28T21:35:29.811Z,3.00
2023-03-28T21:40:32.408Z,2.50
2023-03-28T21:45:35.006Z,3.23
2023-03-28T21:50:40.873Z,3.05
2023-03-28T21:55:43.451Z,3.40
2023-03-28T22:00:46.602Z,4.07
2023-03-28T22:05:52.738Z,3.42
2023-03-28T22:10:58.530Z,4.13
2023-03-28T22:16:01.324Z,3.53
2023-03-28T22:21:06.265Z,3.58
2023-03-28T22:26:09.182Z,4.65
2023-03-28T22:31:11.830Z,4.00
2023-03-28T22:36:15.853Z,4.23
2023-03-28T22:41:18.464Z,3.78
2023-03-28T22:46:21.234Z,4.30
2023-03-28T22:51:28.246Z,4.10
2023-03-28T22:56:31.114Z,4.43
2023-03-28T23:01:34.543Z,4.87
2023-03-28T23:06:39.927Z,4.63
2023-03-28T23:11:42.609Z,4.97
2023-03-28T23:16:45.513Z,5.30
2023-03-28T23:21:50.206Z,5.13
2023-03-28T23:26:52.733Z,4.97
2023-03-28T23:31:55.445Z,4.63
2023-03-28T23:37:02.258Z,4.60
2023-03-28T23:42:06.017Z,5.07
2023-03-28T23:47:09.109Z,4.80
2023-03-28T23:52:13.407Z,5.20
2023-03-28T23:57:16.049Z,4.90
